sensor_id;sensor_type;location;lat;lon;timestamp;temperature;humidity
31113;DHT22;17763;48.730;9.136;2022-08-01T00:02:01;22.60;60.30
31113;DHT22;17763;48.730;9.136;2022-08-01T00:04:26;22.60;60.30
31113;DHT22;17763;48.730;9.136;2022-08-01T00:06:54;22.60;60.40
31113;DHT22;17763;48.730;9.136;2022-08-01T00:09:22;22.60;61.00
31113;DHT22;17763;48.730;9.136;2022-08-01T00:11:48;22.50;60.60
31113;DHT22;17763;48.730;9.136;2022-08-01T00:14:13;22.50;60.60
31113;DHT22;17763;48.730;9.136;2022-08-01T00:16:39;22.50;60.70
31113;DHT22;17763;48.730;9.136;2022-08-01T00:19:07;22.50;60.80
31113;DHT22;17763;48.730;9.136;2022-08-01T00:21:33;22.40;60.80
31113;DHT22;17763;48.730;9.136;2022-08-01T00:23:58;22.40;61.00
31113;DHT22;17763;48.730;9.136;2022-08-01T00:26:27;22.40;61.20
31113;DHT22;17763;48.730;9.136;2022-08-01T00:28:52;22.40;61.20
31113;DHT22;17763;48.730;9.136;2022-08-01T00:31:18;22.30;61.30
31113;DHT22;17763;48.730;9.136;2022-08-01T00:33:46;22.30;61.50
31113;DHT22;17763;48.730;9.136;2022-08-01T00:36:12;22.30;61.60
31113;DHT22;17763;48.730;9.136;2022-08-01T00:38:38;22.30;61.80
31113;DHT22;17763;48.730;9.136;2022-08-01T00:41:03;22.20;61.90
31113;DHT22;17763;48.730;9.136;2022-08-01T00:43:29;22.20;62.00
31113;DHT22;17763;48.730;9.136;2022-08-01T00:45:55;22.20;62.10
31113;DHT22;17763;48.730;9.136;2022-08-01T00:48:20;22.20;62.30
31113;DHT22;17763;48.730;9.136;2022-08-01T00:50:46;22.20;62.50
31113;DHT22;17763;48.730;9.136;2022-08-01T00:53:13;22.10;62.60
31113;DHT22;17763;48.730;9.136;2022-08-01T00:55:38;22.10;62.70
31113;DHT22;17763;48.730;9.136;2022-08-01T00:58:05;22.10;62.90
31113;DHT22;17763;48.730;9.136;2022-08-01T01:00:31;22.10;63.10
31113;DHT22;17763;48.730;9.136;2022-08-01T01:02:57;22.00;63.20
31113;DHT22;17763;48.730;9.136;2022-08-01T01:05:23;22.00;63.50
31113;DHT22;17763;48.730;9.136;2022-08-01T01:08:08;22.00;63.60
31113;DHT22;17763;48.730;9.136;2022-08-01T01:10:58;21.90;63.80
31113;DHT22;17763;48.730;9.136;2022-08-01T01:14:08;21.90;64.10
31113;DHT22;17763;48.730;9.136;2022-08-01T01:16:37;21.90;64.40
31113;DHT22;17763;48.730;9.136;2022-08-01T01:19:10;21.80;64.60
31113;DHT22;17763;48.730;9.136;2022-08-01T01:29:30;21.70;65.20
31113;DHT22;17763;48.730;9.136;2022-08-01T01:34:33;21.70;65.60
31113;DHT22;17763;48.730;9.136;2022-08-01T01:37:01;21.70;65.80
31113;DHT22;17763;48.730;9.136;2022-08-01T01:39:30;21.60;66.00
31113;DHT22;17763;48.730;9.136;2022-08-01T01:41:58;21.60;66.20
31113;DHT22;17763;48.730;9.136;2022-08-01T01:44:26;21.60;66.40
31113;DHT22;17763;48.730;9.136;2022-08-01T01:46:52;21.60;66.60
31113;DHT22;17763;48.730;9.136;2022-08-01T01:49:23;21.60;66.80
31113;DHT22;17763;48.730;9.136;2022-08-01T01:51:51;21.50;67.00
31113;DHT22;17763;48.730;9.136;2022-08-01T01:54:19;21.50;67.20
31113;DHT22;17763;48.730;9.136;2022-08-01T01:56:45;21.50;67.50
31113;DHT22;17763;48.730;9.136;2022-08-01T01:59:18;21.40;67.70
31113;DHT22;17763;48.730;9.136;2022-08-01T02:01:47;21.40;68.10
31113;DHT22;17763;48.730;9.136;2022-08-01T02:04:14;21.40;68.30
31113;DHT22;17763;48.730;9.136;2022-08-01T02:06:40;21.40;68.50
31113;DHT22;17763;48.730;9.136;2022-08-01T02:09:08;21.40;68.70
31113;DHT22;17763;48.730;9.136;2022-08-01T02:11:36;21.40;69.00
31113;DHT22;17763;48.730;9.136;2022-08-01T02:14:04;21.40;69.20
31113;DHT22;17763;48.730;9.136;2022-08-01T02:16:35;21.40;69.40
31113;DHT22;17763;48.730;9.136;2022-08-01T02:19:01;21.30;69.60
31113;DHT22;17763;48.730;9.136;2022-08-01T02:21:44;21.30;69.90
31113;DHT22;17763;48.730;9.136;2022-08-01T02:24:15;21.30;70.10
31113;DHT22;17763;48.730;9.136;2022-08-01T02:26:47;21.30;70.30
31113;DHT22;17763;48.730;9.136;2022-08-01T02:29:19;21.30;70.50
31113;DHT22;17763;48.730;9.136;2022-08-01T02:31:47;21.30;70.60
31113;DHT22;17763;48.730;9.136;2022-08-01T02:34:18;21.20;70.80
31113;DHT22;17763;48.730;9.136;2022-08-01T02:36:46;21.20;71.00
31113;DHT22;17763;48.730;9.136;2022-08-01T02:39:14;21.30;71.20
31113;DHT22;17763;48.730;9.136;2022-08-01T02:41:43;21.30;71.30
31113;DHT22;17763;48.730;9.136;2022-08-01T02:44:18;21.30;71.30
31113;DHT22;17763;48.730;9.136;2022-08-01T02:46:53;21.30;71.30
31113;DHT22;17763;48.730;9.136;2022-08-01T02:49:21;21.30;71.20
31113;DHT22;17763;48.730;9.136;2022-08-01T02:51:49;21.30;71.20
31113;DHT22;17763;48.730;9.136;2022-08-01T02:54:18;21.20;71.20
31113;DHT22;17763;48.730;9.136;2022-08-01T02:56:48;21.20;71.30
31113;DHT22;17763;48.730;9.136;2022-08-01T02:59:18;21.20;71.30
31113;DHT22;17763;48.730;9.136;2022-08-01T03:01:46;21.20;71.30
31113;DHT22;17763;48.730;9.136;2022-08-01T03:04:12;21.20;71.30
31113;DHT22;17763;48.730;9.136;2022-08-01T03:06:40;21.10;71.40
31113;DHT22;17763;48.730;9.136;2022-08-01T03:09:07;21.00;71.50
31113;DHT22;17763;48.730;9.136;2022-08-01T03:11:35;21.00;71.70
31113;DHT22;17763;48.730;9.136;2022-08-01T03:14:05;21.00;71.90
31113;DHT22;17763;48.730;9.136;2022-08-01T03:16:36;20.90;72.10
31113;DHT22;17763;48.730;9.136;2022-08-01T03:19:03;20.90;72.40
31113;DHT22;17763;48.730;9.136;2022-08-01T03:21:31;20.80;72.50
31113;DHT22;17763;48.730;9.136;2022-08-01T03:24:01;20.80;72.80
31113;DHT22;17763;48.730;9.136;2022-08-01T03:26:33;20.80;73.20
31113;DHT22;17763;48.730;9.136;2022-08-01T03:29:05;20.70;73.50
31113;DHT22;17763;48.730;9.136;2022-08-01T03:31:36;20.70;73.80
31113;DHT22;17763;48.730;9.136;2022-08-01T03:34:04;20.60;74.10
31113;DHT22;17763;48.730;9.136;2022-08-01T03:36:31;20.60;74.50
31113;DHT22;17763;48.730;9.136;2022-08-01T03:39:02;20.60;74.80
31113;DHT22;17763;48.730;9.136;2022-08-01T03:41:35;20.60;75.10
31113;DHT22;17763;48.730;9.136;2022-08-01T03:44:16;20.60;75.40
31113;DHT22;17763;48.730;9.136;2022-08-01T03:46:52;20.50;75.70
31113;DHT22;17763;48.730;9.136;2022-08-01T03:49:33;20.50;76.00
31113;DHT22;17763;48.730;9.136;2022-08-01T03:52:02;20.50;76.20
31113;DHT22;17763;48.730;9.136;2022-08-01T03:54:33;20.60;76.50
31113;DHT22;17763;48.730;9.136;2022-08-01T03:57:05;20.60;76.70
31113;DHT22;17763;48.730;9.136;2022-08-01T03:59:31;20.60;76.90
31113;DHT22;17763;48.730;9.136;2022-08-01T04:02:02;20.50;77.10
31113;DHT22;17763;48.730;9.136;2022-08-01T04:04:29;20.50;77.30
31113;DHT22;17763;48.730;9.136;2022-08-01T04:06:57;20.50;77.50
31113;DHT22;17763;48.730;9.136;2022-08-01T04:09:30;20.50;77.70
31113;DHT22;17763;48.730;9.136;2022-08-01T04:11:56;20.50;78.00
31113;DHT22;17763;48.730;9.136;2022-08-01T04:14:23;20.50;78.30
31113;DHT22;17763;48.730;9.136;2022-08-01T04:16:51;20.50;78.60
31113;DHT22;17763;48.730;9.136;2022-08-01T04:19:17;20.50;79.00
31113;DHT22;17763;48.730;9.136;2022-08-01T04:21:42;20.50;79.20
31113;DHT22;17763;48.730;9.136;2022-08-01T04:24:17;20.50;79.40
31113;DHT22;17763;48.730;9.136;2022-08-01T04:26:45;20.50;79.60
31113;DHT22;17763;48.730;9.136;2022-08-01T04:29:15;20.50;79.90
31113;DHT22;17763;48.730;9.136;2022-08-01T04:31:48;20.50;80.10
31113;DHT22;17763;48.730;9.136;2022-08-01T04:34:16;20.50;80.40
31113;DHT22;17763;48.730;9.136;2022-08-01T04:36:44;20.50;80.70
31113;DHT22;17763;48.730;9.136;2022-08-01T04:39:11;20.50;81.00
31113;DHT22;17763;48.730;9.136;2022-08-01T04:41:38;20.50;81.40
31113;DHT22;17763;48.730;9.136;2022-08-01T04:44:07;20.60;81.80
31113;DHT22;17763;48.730;9.136;2022-08-01T04:46:35;20.50;82.20
31113;DHT22;17763;48.730;9.136;2022-08-01T04:49:05;20.50;82.50
31113;DHT22;17763;48.730;9.136;2022-08-01T04:51:31;20.50;83.00
31113;DHT22;17763;48.730;9.136;2022-08-01T04:53:57;20.60;83.40
31113;DHT22;17763;48.730;9.136;2022-08-01T04:56:23;20.60;83.80
31113;DHT22;17763;48.730;9.136;2022-08-01T04:58:54;20.60;84.20
31113;DHT22;17763;48.730;9.136;2022-08-01T05:01:40;20.60;84.60
31113;DHT22;17763;48.730;9.136;2022-08-01T05:04:06;20.70;84.90
31113;DHT22;17763;48.730;9.136;2022-08-01T05:06:34;20.70;85.30
31113;DHT22;17763;48.730;9.136;2022-08-01T05:09:00;20.70;85.80
31113;DHT22;17763;48.730;9.136;2022-08-01T05:11:25;20.70;86.30
31113;DHT22;17763;48.730;9.136;2022-08-01T05:13:51;20.70;86.50
31113;DHT22;17763;48.730;9.136;2022-08-01T05:16:21;20.80;87.00
31113;DHT22;17763;48.730;9.136;2022-08-01T05:18:49;20.80;87.30
31113;DHT22;17763;48.730;9.136;2022-08-01T05:21:14;20.90;87.30
31113;DHT22;17763;48.730;9.136;2022-08-01T05:23:42;21.00;87.30
31113;DHT22;17763;48.730;9.136;2022-08-01T05:26:09;21.00;87.30
31113;DHT22;17763;48.730;9.136;2022-08-01T05:28:37;21.00;87.30
31113;DHT22;17763;48.730;9.136;2022-08-01T05:31:03;21.10;87.40
31113;DHT22;17763;48.730;9.136;2022-08-01T05:33:29;21.10;88.00
31113;DHT22;17763;48.730;9.136;2022-08-01T05:35:54;21.20;87.80
31113;DHT22;17763;48.730;9.136;2022-08-01T05:38:22;21.20;87.90
31113;DHT22;17763;48.730;9.136;2022-08-01T05:40:48;21.20;88.00
31113;DHT22;17763;48.730;9.136;2022-08-01T05:43:14;21.30;88.50
31113;DHT22;17763;48.730;9.136;2022-08-01T05:45:39;21.30;88.80
31113;DHT22;17763;48.730;9.136;2022-08-01T05:48:07;21.40;88.90
31113;DHT22;17763;48.730;9.136;2022-08-01T05:50:35;21.40;89.10
31113;DHT22;17763;48.730;9.136;2022-08-01T05:53:08;21.50;89.20
31113;DHT22;17763;48.730;9.136;2022-08-01T05:55:35;21.50;88.80
31113;DHT22;17763;48.730;9.136;2022-08-01T05:58:04;21.60;88.80
31113;DHT22;17763;48.730;9.136;2022-08-01T06:00:30;21.60;88.60
31113;DHT22;17763;48.730;9.136;2022-08-01T06:02:58;21.60;88.60
31113;DHT22;17763;48.730;9.136;2022-08-01T06:05:23;21.70;88.70
31113;DHT22;17763;48.730;9.136;2022-08-01T06:07:49;21.70;88.80
31113;DHT22;17763;48.730;9.136;2022-08-01T06:10:15;21.70;89.00
31113;DHT22;17763;48.730;9.136;2022-08-01T06:12:40;21.70;89.30
31113;DHT22;17763;48.730;9.136;2022-08-01T06:15:06;21.70;89.50
31113;DHT22;17763;48.730;9.136;2022-08-01T06:17:34;21.70;89.70
31113;DHT22;17763;48.730;9.136;2022-08-01T06:20:00;21.80;90.00
31113;DHT22;17763;48.730;9.136;2022-08-01T06:22:26;21.80;90.20
31113;DHT22;17763;48.730;9.136;2022-08-01T06:24:51;21.90;90.20
31113;DHT22;17763;48.730;9.136;2022-08-01T06:27:19;21.90;90.10
31113;DHT22;17763;48.730;9.136;2022-08-01T06:29:45;21.80;90.00
31113;DHT22;17763;48.730;9.136;2022-08-01T06:32:11;21.90;90.10
31113;DHT22;17763;48.730;9.136;2022-08-01T06:34:38;21.90;90.10
31113;DHT22;17763;48.730;9.136;2022-08-01T06:37:04;21.90;90.20
31113;DHT22;17763;48.730;9.136;2022-08-01T06:39:32;22.00;90.30
31113;DHT22;17763;48.730;9.136;2022-08-01T06:42:00;22.00;90.20
31113;DHT22;17763;48.730;9.136;2022-08-01T06:44:26;22.00;90.30
31113;DHT22;17763;48.730;9.136;2022-08-01T06:46:51;22.00;90.10
31113;DHT22;17763;48.730;9.136;2022-08-01T06:49:19;22.00;90.10
31113;DHT22;17763;48.730;9.136;2022-08-01T06:51:47;22.10;90.10
31113;DHT22;17763;48.730;9.136;2022-08-01T06:54:13;22.10;90.10
31113;DHT22;17763;48.730;9.136;2022-08-01T06:56:38;22.00;90.20
31113;DHT22;17763;48.730;9.136;2022-08-01T06:59:04;22.00;90.40
31113;DHT22;17763;48.730;9.136;2022-08-01T07:01:29;22.10;90.30
31113;DHT22;17763;48.730;9.136;2022-08-01T07:03:55;22.10;90.20
31113;DHT22;17763;48.730;9.136;2022-08-01T07:06:24;22.20;90.00
31113;DHT22;17763;48.730;9.136;2022-08-01T07:08:51;22.30;89.80
31113;DHT22;17763;48.730;9.136;2022-08-01T07:11:19;22.30;89.30
31113;DHT22;17763;48.730;9.136;2022-08-01T07:13:48;22.40;89.80
31113;DHT22;17763;48.730;9.136;2022-08-01T07:16:14;22.40;89.30
31113;DHT22;17763;48.730;9.136;2022-08-01T07:18:43;22.40;89.50
31113;DHT22;17763;48.730;9.136;2022-08-01T07:21:13;22.50;88.60
31113;DHT22;17763;48.730;9.136;2022-08-01T07:23:39;22.60;87.50
31113;DHT22;17763;48.730;9.136;2022-08-01T07:26:04;22.60;87.20
31113;DHT22;17763;48.730;9.136;2022-08-01T07:28:34;22.70;87.50
31113;DHT22;17763;48.730;9.136;2022-08-01T07:30:59;22.70;86.90
31113;DHT22;17763;48.730;9.136;2022-08-01T07:33:25;22.70;86.80
31113;DHT22;17763;48.730;9.136;2022-08-01T07:35:51;22.80;86.80
31113;DHT22;17763;48.730;9.136;2022-08-01T07:38:16;22.90;86.40
31113;DHT22;17763;48.730;9.136;2022-08-01T07:40:43;22.90;85.40
31113;DHT22;17763;48.730;9.136;2022-08-01T07:43:09;23.00;84.90
31113;DHT22;17763;48.730;9.136;2022-08-01T07:45:35;23.00;85.60
31113;DHT22;17763;48.730;9.136;2022-08-01T07:48:07;23.00;85.10
31113;DHT22;17763;48.730;9.136;2022-08-01T07:50:33;23.00;85.50
31113;DHT22;17763;48.730;9.136;2022-08-01T07:53:01;23.00;85.10
31113;DHT22;17763;48.730;9.136;2022-08-01T07:55:28;23.00;85.50
31113;DHT22;17763;48.730;9.136;2022-08-01T07:57:53;23.10;86.00
31113;DHT22;17763;48.730;9.136;2022-08-01T08:00:21;23.20;85.30
31113;DHT22;17763;48.730;9.136;2022-08-01T08:02:46;23.20;85.30
31113;DHT22;17763;48.730;9.136;2022-08-01T08:05:12;23.20;85.30
31113;DHT22;17763;48.730;9.136;2022-08-01T08:07:41;23.20;83.80
31113;DHT22;17763;48.730;9.136;2022-08-01T08:10:06;23.20;85.20
31113;DHT22;17763;48.730;9.136;2022-08-01T08:12:37;23.30;84.80
31113;DHT22;17763;48.730;9.136;2022-08-01T08:15:03;23.40;84.20
31113;DHT22;17763;48.730;9.136;2022-08-01T08:17:31;23.50;83.30
31113;DHT22;17763;48.730;9.136;2022-08-01T08:19:57;23.50;82.90
31113;DHT22;17763;48.730;9.136;2022-08-01T08:22:25;23.50;82.50
31113;DHT22;17763;48.730;9.136;2022-08-01T08:24:51;23.60;82.40
31113;DHT22;17763;48.730;9.136;2022-08-01T08:27:18;23.70;82.40
31113;DHT22;17763;48.730;9.136;2022-08-01T08:29:44;23.80;81.80
31113;DHT22;17763;48.730;9.136;2022-08-01T08:32:10;23.90;81.50
31113;DHT22;17763;48.730;9.136;2022-08-01T08:34:36;24.00;81.20
31113;DHT22;17763;48.730;9.136;2022-08-01T08:37:02;24.00;80.40
31113;DHT22;17763;48.730;9.136;2022-08-01T08:39:30;24.00;80.40
31113;DHT22;17763;48.730;9.136;2022-08-01T08:42:04;24.00;80.60
31113;DHT22;17763;48.730;9.136;2022-08-01T08:44:33;24.00;80.80
31113;DHT22;17763;48.730;9.136;2022-08-01T08:47:03;24.00;80.20
31113;DHT22;17763;48.730;9.136;2022-08-01T08:49:36;24.00;80.40
31113;DHT22;17763;48.730;9.136;2022-08-01T08:52:04;23.90;81.00
31113;DHT22;17763;48.730;9.136;2022-08-01T08:54:34;24.00;81.50
31113;DHT22;17763;48.730;9.136;2022-08-01T08:57:00;24.00;81.00
31113;DHT22;17763;48.730;9.136;2022-08-01T08:59:27;24.00;80.30
31113;DHT22;17763;48.730;9.136;2022-08-01T09:01:53;24.10;78.70
31113;DHT22;17763;48.730;9.136;2022-08-01T09:04:21;24.10;78.60
31113;DHT22;17763;48.730;9.136;2022-08-01T09:06:49;24.20;78.60
31113;DHT22;17763;48.730;9.136;2022-08-01T09:09:18;24.20;78.40
31113;DHT22;17763;48.730;9.136;2022-08-01T09:11:46;24.30;78.00
31113;DHT22;17763;48.730;9.136;2022-08-01T09:14:22;24.40;77.50
31113;DHT22;17763;48.730;9.136;2022-08-01T09:22:09;24.40;76.40
31113;DHT22;17763;48.730;9.136;2022-08-01T09:24:37;24.30;76.60
31113;DHT22;17763;48.730;9.136;2022-08-01T09:27:20;24.40;77.00
31113;DHT22;17763;48.730;9.136;2022-08-01T09:29:54;24.40;77.00
31113;DHT22;17763;48.730;9.136;2022-08-01T09:32:20;24.50;77.00
31113;DHT22;17763;48.730;9.136;2022-08-01T09:34:46;24.50;77.00
31113;DHT22;17763;48.730;9.136;2022-08-01T09:37:14;24.50;76.10
31113;DHT22;17763;48.730;9.136;2022-08-01T09:39:56;24.50;76.20
31113;DHT22;17763;48.730;9.136;2022-08-01T09:42:26;24.60;76.70
31113;DHT22;17763;48.730;9.136;2022-08-01T09:44:53;24.70;76.60
31113;DHT22;17763;48.730;9.136;2022-08-01T09:47:21;24.70;75.80
31113;DHT22;17763;48.730;9.136;2022-08-01T09:49:56;24.80;75.90
31113;DHT22;17763;48.730;9.136;2022-08-01T09:52:24;24.80;76.00
31113;DHT22;17763;48.730;9.136;2022-08-01T09:54:54;24.90;76.50
31113;DHT22;17763;48.730;9.136;2022-08-01T09:57:22;24.90;76.30
31113;DHT22;17763;48.730;9.136;2022-08-01T09:59:53;24.90;75.90
31113;DHT22;17763;48.730;9.136;2022-08-01T10:02:34;24.90;75.90
31113;DHT22;17763;48.730;9.136;2022-08-01T10:05:07;25.00;76.50
31113;DHT22;17763;48.730;9.136;2022-08-01T10:07:55;25.00;76.00
31113;DHT22;17763;48.730;9.136;2022-08-01T10:10:23;25.10;76.60
31113;DHT22;17763;48.730;9.136;2022-08-01T10:12:51;25.10;76.90
31113;DHT22;17763;48.730;9.136;2022-08-01T10:15:18;25.10;76.90
31113;DHT22;17763;48.730;9.136;2022-08-01T10:17:56;25.20;77.20
31113;DHT22;17763;48.730;9.136;2022-08-01T10:20:24;25.10;77.10
31113;DHT22;17763;48.730;9.136;2022-08-01T10:22:58;25.20;77.40
31113;DHT22;17763;48.730;9.136;2022-08-01T10:25:24;25.20;77.00
31113;DHT22;17763;48.730;9.136;2022-08-01T10:27:55;25.20;76.50
31113;DHT22;17763;48.730;9.136;2022-08-01T10:30:22;25.20;76.40
31113;DHT22;17763;48.730;9.136;2022-08-01T10:32:53;25.20;76.30
31113;DHT22;17763;48.730;9.136;2022-08-01T10:35:20;25.10;76.10
31113;DHT22;17763;48.730;9.136;2022-08-01T10:37:46;25.10;76.80
31113;DHT22;17763;48.730;9.136;2022-08-01T10:40:13;25.20;77.40
31113;DHT22;17763;48.730;9.136;2022-08-01T10:42:44;25.20;76.30
31113;DHT22;17763;48.730;9.136;2022-08-01T10:45:15;25.20;76.00
31113;DHT22;17763;48.730;9.136;2022-08-01T10:50:43;25.20;76.40
31113;DHT22;17763;48.730;9.136;2022-08-01T10:53:21;25.20;75.70
31113;DHT22;17763;48.730;9.136;2022-08-01T10:58:28;25.20;75.50
31113;DHT22;17763;48.730;9.136;2022-08-01T11:03:58;25.20;76.20
31113;DHT22;17763;48.730;9.136;2022-08-01T11:08:58;25.10;75.30
31113;DHT22;17763;48.730;9.136;2022-08-01T11:11:27;25.10;75.20
31113;DHT22;17763;48.730;9.136;2022-08-01T11:16:34;25.20;75.90
31113;DHT22;17763;48.730;9.136;2022-08-01T11:19:04;25.20;75.40
31113;DHT22;17763;48.730;9.136;2022-08-01T11:22:11;25.20;75.40
31113;DHT22;17763;48.730;9.136;2022-08-01T11:32:51;25.10;74.60
31113;DHT22;17763;48.730;9.136;2022-08-01T11:35:17;25.00;74.40
31113;DHT22;17763;48.730;9.136;2022-08-01T11:37:44;25.00;74.20
31113;DHT22;17763;48.730;9.136;2022-08-01T11:40:21;25.00;74.40
31113;DHT22;17763;48.730;9.136;2022-08-01T11:43:36;25.00;74.80
31113;DHT22;17763;48.730;9.136;2022-08-01T11:45:51;25.00;75.00
31113;DHT22;17763;48.730;9.136;2022-08-01T11:48:24;25.00;73.40
31113;DHT22;17763;48.730;9.136;2022-08-01T11:50:52;25.00;73.20
31113;DHT22;17763;48.730;9.136;2022-08-01T11:53:23;25.00;72.60
31113;DHT22;17763;48.730;9.136;2022-08-01T11:55:51;25.10;72.10
31113;DHT22;17763;48.730;9.136;2022-08-01T11:58:27;25.10;72.30
31113;DHT22;17763;48.730;9.136;2022-08-01T12:00:53;25.10;71.80
31113;DHT22;17763;48.730;9.136;2022-08-01T12:03:30;25.10;71.50
31113;DHT22;17763;48.730;9.136;2022-08-01T12:05:58;25.20;72.30
31113;DHT22;17763;48.730;9.136;2022-08-01T12:08:31;25.30;73.90
31113;DHT22;17763;48.730;9.136;2022-08-01T12:11:03;25.30;74.90
31113;DHT22;17763;48.730;9.136;2022-08-01T12:13:40;25.30;74.30
31113;DHT22;17763;48.730;9.136;2022-08-01T12:16:10;25.40;74.30
31113;DHT22;17763;48.730;9.136;2022-08-01T12:18:43;25.50;74.20
31113;DHT22;17763;48.730;9.136;2022-08-01T12:21:11;25.50;73.90
31113;DHT22;17763;48.730;9.136;2022-08-01T12:23:39;25.50;72.50
31113;DHT22;17763;48.730;9.136;2022-08-01T12:26:05;25.50;73.00
31113;DHT22;17763;48.730;9.136;2022-08-01T12:28:39;25.50;73.80
31113;DHT22;17763;48.730;9.136;2022-08-01T12:31:07;25.50;72.40
31113;DHT22;17763;48.730;9.136;2022-08-01T12:33:35;25.50;72.00
31113;DHT22;17763;48.730;9.136;2022-08-01T12:36:03;25.60;71.30
31113;DHT22;17763;48.730;9.136;2022-08-01T12:38:30;25.60;71.30
31113;DHT22;17763;48.730;9.136;2022-08-01T12:40:58;25.60;71.30
31113;DHT22;17763;48.730;9.136;2022-08-01T12:43:23;25.70;71.90
31113;DHT22;17763;48.730;9.136;2022-08-01T12:45:56;25.70;73.00
31113;DHT22;17763;48.730;9.136;2022-08-01T12:48:26;25.80;72.60
31113;DHT22;17763;48.730;9.136;2022-08-01T12:50:52;25.70;71.00
31113;DHT22;17763;48.730;9.136;2022-08-01T12:53:18;25.80;70.90
31113;DHT22;17763;48.730;9.136;2022-08-01T12:55:45;25.80;70.70
31113;DHT22;17763;48.730;9.136;2022-08-01T12:58:13;25.70;71.00
31113;DHT22;17763;48.730;9.136;2022-08-01T13:00:40;25.80;71.30
31113;DHT22;17763;48.730;9.136;2022-08-01T13:03:10;25.90;71.70
31113;DHT22;17763;48.730;9.136;2022-08-01T13:05:53;26.00;71.80
31113;DHT22;17763;48.730;9.136;2022-08-01T13:08:25;26.10;70.10
31113;DHT22;17763;48.730;9.136;2022-08-01T13:11:09;26.20;69.30
31113;DHT22;17763;48.730;9.136;2022-08-01T13:13:51;26.20;69.50
31113;DHT22;17763;48.730;9.136;2022-08-01T13:16:21;26.20;69.20
31113;DHT22;17763;48.730;9.136;2022-08-01T13:18:53;26.30;69.50
31113;DHT22;17763;48.730;9.136;2022-08-01T13:21:27;26.30;68.60
31113;DHT22;17763;48.730;9.136;2022-08-01T13:24:12;26.20;68.40
31113;DHT22;17763;48.730;9.136;2022-08-01T13:29:10;26.20;69.10
31113;DHT22;17763;48.730;9.136;2022-08-01T13:31:38;26.10;69.10
31113;DHT22;17763;48.730;9.136;2022-08-01T13:34:04;26.00;69.00
31113;DHT22;17763;48.730;9.136;2022-08-01T13:36:30;26.10;69.40
31113;DHT22;17763;48.730;9.136;2022-08-01T13:39:00;26.10;68.80
31113;DHT22;17763;48.730;9.136;2022-08-01T13:41:45;26.20;69.40
31113;DHT22;17763;48.730;9.136;2022-08-01T13:44:13;26.20;68.80
31113;DHT22;17763;48.730;9.136;2022-08-01T13:46:40;26.40;69.10
31113;DHT22;17763;48.730;9.136;2022-08-01T13:49:10;26.50;68.40
31113;DHT22;17763;48.730;9.136;2022-08-01T13:51:37;26.70;68.10
31113;DHT22;17763;48.730;9.136;2022-08-01T13:54:06;26.60;68.00
31113;DHT22;17763;48.730;9.136;2022-08-01T13:56:33;26.70;67.00
31113;DHT22;17763;48.730;9.136;2022-08-01T13:59:00;26.70;66.70
31113;DHT22;17763;48.730;9.136;2022-08-01T14:01:26;26.80;66.20
31113;DHT22;17763;48.730;9.136;2022-08-01T14:03:52;26.90;66.40
31113;DHT22;17763;48.730;9.136;2022-08-01T14:06:18;27.10;67.30
31113;DHT22;17763;48.730;9.136;2022-08-01T14:08:46;27.20;66.30
31113;DHT22;17763;48.730;9.136;2022-08-01T14:11:12;27.20;66.00
31113;DHT22;17763;48.730;9.136;2022-08-01T14:13:40;27.20;65.10
31113;DHT22;17763;48.730;9.136;2022-08-01T14:16:06;27.20;65.30
31113;DHT22;17763;48.730;9.136;2022-08-01T14:18:32;27.20;65.50
31113;DHT22;17763;48.730;9.136;2022-08-01T14:21:02;27.10;65.60
31113;DHT22;17763;48.730;9.136;2022-08-01T14:23:28;27.00;65.80
31113;DHT22;17763;48.730;9.136;2022-08-01T14:25:54;27.00;66.00
31113;DHT22;17763;48.730;9.136;2022-08-01T14:28:20;27.00;66.00
31113;DHT22;17763;48.730;9.136;2022-08-01T14:30:48;27.10;66.00
31113;DHT22;17763;48.730;9.136;2022-08-01T14:33:16;27.00;65.10
31113;DHT22;17763;48.730;9.136;2022-08-01T14:35:42;27.10;65.50
31113;DHT22;17763;48.730;9.136;2022-08-01T14:38:08;27.10;66.20
31113;DHT22;17763;48.730;9.136;2022-08-01T14:40:36;27.10;65.40
31113;DHT22;17763;48.730;9.136;2022-08-01T14:43:01;27.00;65.30
31113;DHT22;17763;48.730;9.136;2022-08-01T14:45:28;27.10;64.90
31113;DHT22;17763;48.730;9.136;2022-08-01T14:47:53;27.10;64.90
31113;DHT22;17763;48.730;9.136;2022-08-01T14:50:19;27.20;64.70
31113;DHT22;17763;48.730;9.136;2022-08-01T14:52:45;27.20;64.30
31113;DHT22;17763;48.730;9.136;2022-08-01T14:55:13;27.30;64.50
31113;DHT22;17763;48.730;9.136;2022-08-01T14:57:39;27.40;64.10
31113;DHT22;17763;48.730;9.136;2022-08-01T15:00:07;27.30;63.60
31113;DHT22;17763;48.730;9.136;2022-08-01T15:02:38;27.40;64.00
31113;DHT22;17763;48.730;9.136;2022-08-01T15:05:04;27.60;63.50
31113;DHT22;17763;48.730;9.136;2022-08-01T15:07:30;27.70;63.00
31113;DHT22;17763;48.730;9.136;2022-08-01T15:09:56;27.80;62.30
31113;DHT22;17763;48.730;9.136;2022-08-01T15:12:22;27.90;62.20
31113;DHT22;17763;48.730;9.136;2022-08-01T15:14:47;27.90;61.90
31113;DHT22;17763;48.730;9.136;2022-08-01T15:17:16;27.90;62.30
31113;DHT22;17763;48.730;9.136;2022-08-01T15:19:42;27.90;60.90
31113;DHT22;17763;48.730;9.136;2022-08-01T15:22:10;27.90;60.90
31113;DHT22;17763;48.730;9.136;2022-08-01T15:24:38;27.80;60.80
31113;DHT22;17763;48.730;9.136;2022-08-01T15:27:06;27.70;61.10
31113;DHT22;17763;48.730;9.136;2022-08-01T15:29:32;27.60;61.00
31113;DHT22;17763;48.730;9.136;2022-08-01T15:32:02;27.60;60.80
31113;DHT22;17763;48.730;9.136;2022-08-01T15:34:32;27.60;61.00
31113;DHT22;17763;48.730;9.136;2022-08-01T15:36:58;27.60;61.30
31113;DHT22;17763;48.730;9.136;2022-08-01T15:39:23;27.60;61.70
31113;DHT22;17763;48.730;9.136;2022-08-01T15:41:52;27.50;61.60
31113;DHT22;17763;48.730;9.136;2022-08-01T15:44:17;27.50;61.20
31113;DHT22;17763;48.730;9.136;2022-08-01T15:46:48;27.40;61.70
31113;DHT22;17763;48.730;9.136;2022-08-01T15:49:17;27.30;61.70
31113;DHT22;17763;48.730;9.136;2022-08-01T15:51:45;27.30;62.00
31113;DHT22;17763;48.730;9.136;2022-08-01T15:54:13;27.30;61.70
31113;DHT22;17763;48.730;9.136;2022-08-01T15:56:38;27.20;61.00
31113;DHT22;17763;48.730;9.136;2022-08-01T15:59:04;27.10;61.10
31113;DHT22;17763;48.730;9.136;2022-08-01T16:01:35;27.00;61.20
31113;DHT22;17763;48.730;9.136;2022-08-01T16:04:01;27.00;61.80
31113;DHT22;17763;48.730;9.136;2022-08-01T16:06:27;27.00;61.90
31113;DHT22;17763;48.730;9.136;2022-08-01T16:08:55;26.90;61.00
31113;DHT22;17763;48.730;9.136;2022-08-01T16:11:20;26.90;61.00
31113;DHT22;17763;48.730;9.136;2022-08-01T16:13:48;26.90;61.10
31113;DHT22;17763;48.730;9.136;2022-08-01T16:16:17;26.80;61.10
31113;DHT22;17763;48.730;9.136;2022-08-01T16:18:42;26.80;61.10
31113;DHT22;17763;48.730;9.136;2022-08-01T16:21:08;26.80;61.00